createdAt,value
2024-01-28T00:04:18.731Z,22.00
2024-01-28T00:09:20.943Z,22.90
2024-01-28T00:14:25.815Z,24.80
2024-01-28T00:19:28.334Z,23.50
2024-01-28T00:24:34.203Z,25.90
2024-01-28T00:29:36.599Z,30.10
2024-01-28T00:35:02.123Z,27.40
2024-01-28T00:40:43.375Z,32.20
2024-01-28T00:46:08.427Z,29.60
2024-01-28T00:51:10.449Z,30.30
2024-01-28T00:56:16.799Z,34.50
2024-01-28T01:01:37.883Z,37.10
2024-01-28T01:06:46.848Z,37.50
2024-01-28T01:11:49.210Z,31.40
2024-01-28T01:16:51.419Z,32.80
2024-01-28T01:21:57.650Z,29.90
2024-01-28T01:26:59.901Z,30.00
2024-01-28T01:32:17.572Z,33.70
2024-01-28T01:37:22.341Z,28.40
2024-01-28T01:42:24.254Z,25.90
2024-01-28T01:47:33.335Z,35.80
2024-01-28T01:52:45.896Z,30.50
2024-01-28T01:58:09.927Z,27.80
2024-01-28T02:03:13.213Z,30.70
2024-01-28T02:09:16.164Z,21.70
2024-01-28T02:14:46.684Z,26.30
2024-01-28T02:19:51.065Z,26.10
2024-01-28T02:24:55.886Z,23.00
2024-01-28T02:30:19.934Z,23.40
2024-01-28T02:35:35.020Z,24.70
2024-01-28T02:40:49.821Z,24.00
2024-01-28T02:45:52.123Z,20.80
2024-01-28T02:50:54.094Z,21.10
2024-01-28T02:56:00.314Z,21.90
2024-01-28T03:01:13.010Z,22.20
2024-01-28T03:06:17.733Z,20.40
2024-01-28T03:11:21.884Z,19.30
2024-01-28T03:21:25.710Z,24.90
2024-01-28T03:26:32.488Z,22.50
2024-01-28T03:31:41.215Z,23.90
2024-01-28T03:36:43.313Z,24.60
2024-01-28T03:41:58.780Z,21.50
2024-01-28T03:47:00.868Z,21.10
2024-01-28T03:52:03.247Z,22.00
2024-01-28T03:57:07.916Z,22.40
2024-01-28T04:02:10.260Z,22.20
2024-01-28T04:07:12.448Z,24.00
2024-01-28T04:12:34.834Z,28.50
2024-01-28T04:17:52.216Z,23.40
2024-01-28T04:23:06.264Z,26.20
2024-01-28T04:28:08.351Z,28.10
2024-01-28T04:33:30.700Z,26.70
2024-01-28T04:38:41.691Z,24.50
2024-01-28T04:44:06.977Z,21.20
2024-01-28T04:49:11.830Z,17.60
2024-01-28T04:54:17.940Z,18.90
2024-01-28T04:59:30.388Z,14.30
2024-01-28T05:04:53.784Z,15.60
2024-01-28T05:10:09.623Z,19.60
2024-01-28T05:15:24.628Z,14.10
2024-01-28T05:20:34.165Z,17.50
2024-01-28T05:25:38.610Z,17.70
2024-01-28T05:30:43.590Z,18.60
2024-01-28T05:35:45.990Z,16.00
2024-01-28T05:40:53.527Z,16.40
2024-01-28T05:45:55.760Z,19.80
2024-01-28T05:51:00.919Z,17.80
2024-01-28T05:56:19.895Z,16.50
2024-01-28T06:01:38.321Z,18.90
2024-01-28T06:07:01.120Z,18.90
2024-01-28T06:12:06.107Z,19.90
2024-01-28T06:17:11.219Z,17.40
2024-01-28T06:22:16.948Z,18.50
2024-01-28T06:27:19.634Z,16.60
2024-01-28T06:32:25.642Z,14.80
2024-01-28T06:37:27.913Z,16.00
2024-01-28T06:42:32.858Z,15.10
2024-01-28T06:47:35.373Z,15.80
2024-01-28T06:52:39.694Z,15.40
2024-01-28T06:57:41.759Z,14.40
2024-01-28T07:02:48.069Z,13.70
2024-01-28T07:07:53.135Z,15.00
2024-01-28T07:12:59.188Z,12.90
2024-01-28T07:18:03.787Z,15.20
2024-01-28T07:23:16.474Z,13.10
2024-01-28T07:28:18.554Z,13.50
2024-01-28T07:33:21.011Z,15.20
2024-01-28T07:38:23.307Z,13.90
2024-01-28T07:43:28.366Z,14.50
2024-01-28T07:48:33.138Z,13.80
2024-01-28T07:53:35.239Z,13.00
2024-01-28T07:58:40.281Z,18.60
2024-01-28T08:03:42.299Z,14.60
2024-01-28T08:08:44.663Z,14.60
2024-01-28T08:13:48.918Z,13.70
2024-01-28T08:18:51.193Z,14.50
2024-01-28T08:23:53.222Z,13.50
2024-01-28T08:28:55.670Z,15.70
2024-01-28T08:33:57.633Z,14.00
2024-01-28T08:38:59.856Z,13.00
2024-01-28T08:44:02.015Z,10.90
2024-01-28T08:49:04.179Z,13.40
2024-01-28T08:54:06.340Z,10.70
2024-01-28T08:59:08.648Z,12.00
2024-01-28T09:04:16.433Z,10.80
2024-01-28T09:09:18.536Z,7.90
2024-01-28T09:14:20.698Z,11.40
2024-01-28T09:19:27.655Z,9.20
2024-01-28T09:24:29.938Z,10.10
2024-01-28T09:29:32.258Z,10.30
2024-01-28T09:34:34.621Z,10.40
2024-01-28T09:39:36.758Z,10.00
2024-01-28T09:49:43.864Z,9.90
2024-01-28T09:54:53.218Z,10.90
2024-01-28T09:59:55.928Z,11.30
2024-01-28T10:05:11.716Z,7.80
2024-01-28T10:10:34.318Z,7.30
2024-01-28T10:15:36.696Z,8.60
2024-01-28T10:20:38.955Z,7.00
2024-01-28T10:25:41.529Z,8.40
2024-01-28T10:30:43.713Z,8.20
2024-01-28T10:35:46.646Z,11.20
2024-01-28T10:40:50.983Z,10.90
2024-01-28T10:45:56.591Z,10.30
2024-01-28T10:51:00.898Z,8.60
2024-01-28T10:56:04.262Z,9.10
2024-01-28T11:01:07.913Z,10.30
2024-01-28T11:06:10.246Z,10.30
2024-01-28T11:11:16.379Z,7.80
2024-01-28T11:16:20.172Z,9.30
2024-01-28T11:21:22.455Z,12.20
2024-01-28T11:26:28.118Z,14.80
2024-01-28T11:31:32.476Z,17.30
2024-01-28T11:36:39.294Z,23.90
2024-01-28T11:41:43.683Z,17.60
2024-01-28T11:46:52.634Z,19.50
2024-01-28T11:51:54.698Z,15.30
2024-01-28T11:56:56.822Z,17.90
2024-01-28T12:01:59.044Z,15.80
2024-01-28T12:07:01.443Z,15.70
2024-01-28T12:12:15.189Z,13.90
2024-01-28T12:17:17.862Z,21.20
2024-01-28T12:22:21.263Z,15.30
2024-01-28T12:27:23.730Z,12.70
2024-01-28T12:32:26.297Z,12.40
2024-01-28T12:37:28.531Z,14.30
2024-01-28T12:47:36.828Z,19.00
2024-01-28T12:52:39.244Z,18.00
2024-01-28T12:57:42.908Z,19.00
2024-01-28T13:08:24.054Z,20.40
2024-01-28T13:15:16.859Z,14.80
2024-01-28T13:20:47.005Z,13.90
2024-01-28T13:32:29.655Z,13.70
2024-01-28T13:37:40.020Z,15.70
2024-01-28T13:43:45.268Z,14.40
2024-01-28T13:49:13.898Z,13.20
2024-01-28T13:54:27.559Z,18.40
2024-01-28T13:59:45.883Z,17.30
2024-01-28T14:05:02.700Z,18.90
2024-01-28T14:10:22.148Z,16.80
2024-01-28T14:15:29.908Z,38.30
2024-01-28T14:20:32.377Z,24.00
2024-01-28T14:25:37.540Z,22.70
2024-01-28T14:30:40.214Z,27.50
2024-01-28T14:35:44.530Z,23.80
2024-01-28T14:40:46.842Z,26.20
2024-01-28T14:45:49.455Z,27.00
2024-01-28T14:50:51.726Z,25.20
2024-01-28T14:55:55.961Z,28.00
2024-01-28T15:00:58.225Z,27.70
2024-01-28T15:06:10.556Z,30.50
2024-01-28T15:11:15.327Z,28.70
2024-01-28T15:16:20.510Z,30.90
2024-01-28T15:22:02.993Z,24.30
2024-01-28T15:27:06.798Z,29.10
2024-01-28T15:32:08.775Z,28.80
2024-01-28T15:42:13.632Z,27.50
2024-01-28T15:47:16.173Z,24.20
2024-01-28T15:52:18.220Z,27.70
2024-01-28T16:02:22.394Z,29.30
2024-01-28T16:12:35.600Z,30.90
2024-01-28T16:17:37.648Z,27.70
2024-01-28T16:27:44.432Z,25.30
2024-01-28T16:32:46.807Z,31.40
2024-01-28T16:37:50.645Z,37.50
2024-01-28T16:43:04.229Z,32.70
2024-01-28T16:48:33.066Z,30.70
2024-01-28T16:53:59.367Z,33.90
2024-01-28T16:59:10.347Z,34.60
2024-01-28T17:04:12.436Z,36.60
2024-01-28T17:14:17.619Z,37.60
2024-01-28T17:19:19.876Z,38.60
2024-01-28T17:24:27.533Z,39.70
2024-01-28T17:29:32.859Z,38.20
2024-01-28T17:34:35.354Z,39.20
2024-01-28T17:39:40.305Z,42.90
2024-01-28T17:44:42.241Z,48.70
2024-01-28T17:49:51.745Z,48.60
2024-01-28T17:55:13.856Z,50.50
2024-01-28T18:00:18.678Z,44.90
2024-01-28T18:05:52.677Z,54.90
2024-01-28T18:11:37.585Z,51.30
2024-01-28T18:16:45.222Z,51.00
2024-01-28T18:21:56.853Z,54.70
2024-01-28T18:27:28.049Z,48.10
2024-01-28T18:32:41.272Z,46.40
2024-01-28T18:37:43.195Z,47.40
2024-01-28T18:42:47.933Z,45.60
2024-01-28T18:47:56.903Z,47.40
2024-01-28T18:53:01.899Z,46.20
2024-01-28T18:58:12.180Z,46.50
2024-01-28T19:03:17.707Z,45.40
2024-01-28T19:08:23.200Z,47.30
2024-01-28T19:13:25.994Z,50.00
2024-01-28T19:18:53.928Z,46.20
2024-01-28T19:23:56.358Z,47.60
2024-01-28T19:29:09.089Z,43.90
2024-01-28T19:34:17.769Z,42.80
2024-01-28T19:39:24.429Z,39.80
2024-01-28T19:44:30.001Z,46.10
2024-01-28T19:49:33.359Z,45.20
2024-01-28T19:54:35.697Z,44.20
2024-01-28T19:59:49.168Z,32.30
2024-01-28T20:05:09.156Z,33.00
2024-01-28T20:10:19.208Z,33.90
2024-01-28T20:15:23.285Z,33.30
2024-01-28T20:20:27.767Z,38.00
2024-01-28T20:25:32.955Z,28.30
2024-01-28T20:30:37.797Z,39.30
2024-01-28T20:35:40.046Z,43.00
2024-01-28T20:41:02.180Z,40.00
2024-01-28T20:46:04.701Z,35.40
2024-01-28T20:51:09.717Z,35.60
2024-01-28T20:56:22.195Z,31.30
2024-01-28T21:01:35.086Z,32.80
2024-01-28T21:06:37.332Z,31.90
2024-01-28T21:11:41.557Z,31.80
2024-01-28T21:16:58.417Z,27.70
2024-01-28T21:22:19.620Z,29.40
2024-01-28T21:27:24.072Z,23.70
2024-01-28T21:32:29.378Z,23.40
2024-01-28T21:37:34.455Z,23.10
2024-01-28T21:42:47.833Z,21.60
2024-01-28T21:47:52.406Z,25.40
2024-01-28T21:52:54.574Z,27.00
2024-01-28T21:57:56.884Z,30.10
2024-01-28T22:03:03.797Z,26.20
2024-01-28T22:08:20.593Z,25.00
2024-01-28T22:13:28.511Z,26.60
2024-01-28T22:18:38.602Z,27.20
2024-01-28T22:23:43.128Z,27.70
2024-01-28T22:28:46.451Z,28.00
2024-01-28T22:33:51.151Z,25.50
2024-01-28T22:38:53.141Z,20.00
2024-01-28T22:49:10.105Z,22.90
2024-01-28T22:54:14.936Z,23.90
2024-01-28T22:59:19.493Z,19.30
2024-01-28T23:04:47.667Z,19.70
2024-01-28T23:09:49.895Z,23.00
2024-01-28T23:14:52.687Z,21.00
2024-01-28T23:20:17.179Z,27.50
2024-01-28T23:25:19.311Z,23.00
2024-01-28T23:30:23.903Z,24.30
2024-01-28T23:35:28.552Z,22.60
2024-01-28T23:40:30.795Z,25.30
2024-01-28T23:45:33.368Z,24.70
2024-01-28T23:51:11.767Z,23.90
2024-01-28T23:56:15.963Z,23.30
